createdAt,value
2022-12-11T00:02:05.825Z,18.43
2022-12-11T00:04:32.835Z,17.13
2022-12-11T00:06:59.517Z,16.73
2022-12-11T00:09:26.178Z,16.73
2022-12-11T00:11:53.009Z,17.10
2022-12-11T00:14:19.746Z,17.50
2022-12-11T00:16:48.481Z,16.23
2022-12-11T00:19:15.817Z,15.53
2022-12-11T00:21:42.691Z,16.07
2022-12-11T00:24:09.473Z,15.10
2022-12-11T00:26:36.224Z,16.57
2022-12-11T00:29:03.073Z,16.20
2022-12-11T00:31:29.919Z,16.20
2022-12-11T00:33:56.597Z,16.87
2022-12-11T00:36:25.612Z,17.10
2022-12-11T00:38:53.159Z,16.40
2022-12-11T00:41:23.112Z,16.97
2022-12-11T00:43:50.203Z,15.20
2022-12-11T00:46:17.049Z,16.13
2022-12-11T00:48:43.808Z,14.37
2022-12-11T00:51:10.725Z,16.20
2022-12-11T00:53:38.701Z,15.97
2022-12-11T00:56:17.534Z,17.47
2022-12-11T00:58:45.292Z,17.00
2022-12-11T01:01:18.413Z,16.33
2022-12-11T01:03:45.772Z,15.80
2022-12-11T01:06:17.226Z,14.93
2022-12-11T01:08:45.129Z,16.20
2022-12-11T01:11:13.750Z,16.40
2022-12-11T01:13:41.602Z,16.93
2022-12-11T01:16:14.189Z,17.33
2022-12-11T01:18:41.403Z,17.00
2022-12-11T01:21:09.740Z,16.77
2022-12-11T01:23:37.452Z,15.93
2022-12-11T01:26:06.175Z,16.57
2022-12-11T01:28:32.945Z,15.87
2022-12-11T01:30:59.625Z,15.97
2022-12-11T01:33:26.717Z,15.13
2022-12-11T01:35:54.368Z,15.70
2022-12-11T01:38:21.103Z,15.73
2022-12-11T01:40:49.743Z,15.07
2022-12-11T01:43:16.639Z,16.00
2022-12-11T01:45:46.142Z,15.47
2022-12-11T01:48:21.358Z,14.73
2022-12-11T01:50:57.989Z,15.40
2022-12-11T01:53:31.725Z,15.10
2022-12-11T01:55:59.283Z,15.50
2022-12-11T01:58:41.935Z,15.67
2022-12-11T02:01:14.704Z,15.63
2022-12-11T02:03:41.349Z,16.27
2022-12-11T02:06:33.735Z,16.07
2022-12-11T02:09:01.421Z,14.97
2022-12-11T02:11:40.795Z,15.10
2022-12-11T02:14:28.921Z,15.53
2022-12-11T02:17:22.638Z,15.80
2022-12-11T02:20:03.819Z,14.17
2022-12-11T02:22:48.862Z,14.90
2022-12-11T02:25:31.313Z,14.47
2022-12-11T02:28:30.423Z,14.83
2022-12-11T02:31:16.741Z,14.30
2022-12-11T02:33:58.264Z,13.83
2022-12-11T02:36:28.349Z,13.97
2022-12-11T02:38:58.827Z,14.00
2022-12-11T02:41:28.888Z,14.70
2022-12-11T02:43:57.718Z,15.23
2022-12-11T02:46:25.654Z,14.97
2022-12-11T02:48:54.207Z,15.13
2022-12-11T02:51:25.949Z,15.37
2022-12-11T02:53:56.915Z,13.27
2022-12-11T02:56:38.165Z,14.63
2022-12-11T02:59:11.052Z,14.00
2022-12-11T03:01:38.182Z,14.00
2022-12-11T03:04:05.433Z,14.07
2022-12-11T03:06:37.290Z,14.43
2022-12-11T03:09:05.298Z,13.37
2022-12-11T03:11:32.018Z,13.60
2022-12-11T03:13:59.933Z,14.57
2022-12-11T03:16:35.410Z,14.03
2022-12-11T03:19:12.610Z,14.53
2022-12-11T03:22:03.558Z,14.87
2022-12-11T03:24:43.566Z,14.40
2022-12-11T03:27:21.827Z,13.97
2022-12-11T03:29:57.779Z,14.80
2022-12-11T03:32:31.282Z,15.23
2022-12-11T03:35:06.058Z,14.60
2022-12-11T03:37:36.568Z,14.67
2022-12-11T03:40:10.505Z,14.23
2022-12-11T03:42:40.266Z,15.27
2022-12-11T03:45:08.667Z,15.60
2022-12-11T03:47:37.771Z,15.63
2022-12-11T03:50:07.331Z,15.27
2022-12-11T03:52:39.674Z,14.63
2022-12-11T03:55:13.888Z,15.17
2022-12-11T03:57:40.650Z,15.30
2022-12-11T04:00:10.333Z,15.67
2022-12-11T04:02:40.968Z,15.03
2022-12-11T04:05:09.161Z,15.40
2022-12-11T04:07:36.339Z,16.80
2022-12-11T04:10:04.811Z,16.30
2022-12-11T04:12:31.428Z,14.97
2022-12-11T04:15:04.006Z,16.40
2022-12-11T04:17:53.562Z,16.83
2022-12-11T04:20:40.086Z,16.77
2022-12-11T04:23:31.447Z,15.30
2022-12-11T04:26:16.748Z,16.67
2022-12-11T04:28:44.852Z,15.83
2022-12-11T04:31:17.294Z,16.00
2022-12-11T04:33:44.288Z,16.03
2022-12-11T04:36:11.658Z,16.60
2022-12-11T04:38:38.382Z,14.93
2022-12-11T04:41:16.030Z,16.00
2022-12-11T04:43:45.253Z,16.30
2022-12-11T04:46:16.236Z,15.43
2022-12-11T04:48:43.086Z,15.10
2022-12-11T04:51:10.159Z,16.00
2022-12-11T04:53:37.582Z,14.53
2022-12-11T04:56:09.042Z,15.40
2022-12-11T04:58:36.870Z,14.57
2022-12-11T05:01:13.963Z,15.07
2022-12-11T05:03:41.562Z,14.93
2022-12-11T05:06:10.110Z,14.07
2022-12-11T05:08:40.149Z,13.67
2022-12-11T05:11:09.820Z,14.33
2022-12-11T05:13:36.569Z,14.67
2022-12-11T05:16:05.690Z,13.23
2022-12-11T05:18:32.535Z,13.77
2022-12-11T05:21:01.332Z,13.63
2022-12-11T05:23:29.052Z,13.37
2022-12-11T05:25:58.004Z,13.67
2022-12-11T05:28:26.481Z,12.90
2022-12-11T05:31:00.866Z,13.83
2022-12-11T05:33:28.675Z,13.17
2022-12-11T05:35:55.460Z,14.40
2022-12-11T05:38:22.621Z,14.03
2022-12-11T05:41:03.944Z,14.67
2022-12-11T05:43:33.400Z,14.03
2022-12-11T05:46:13.333Z,14.00
2022-12-11T05:48:41.509Z,12.90
2022-12-11T05:51:09.113Z,13.23
2022-12-11T05:53:37.192Z,12.67
2022-12-11T05:56:06.278Z,11.07
2022-12-11T05:58:34.355Z,11.20
2022-12-11T06:01:02.311Z,10.60
2022-12-11T06:03:28.960Z,11.63
2022-12-11T06:05:55.804Z,11.87
2022-12-11T06:08:22.697Z,10.83
2022-12-11T06:10:50.666Z,11.23
2022-12-11T06:13:17.618Z,10.20
2022-12-11T06:15:44.241Z,10.43
2022-12-11T06:18:11.023Z,11.13
2022-12-11T06:20:38.027Z,10.40
2022-12-11T06:23:04.893Z,10.47
2022-12-11T06:25:31.571Z,11.03
2022-12-11T06:27:58.340Z,9.97
2022-12-11T06:30:38.820Z,10.07
2022-12-11T06:33:06.713Z,10.53
2022-12-11T06:35:38.614Z,10.57
2022-12-11T06:38:08.297Z,10.37
2022-12-11T06:40:34.961Z,12.90
2022-12-11T06:43:01.692Z,13.07
2022-12-11T06:45:28.507Z,11.80
2022-12-11T06:47:55.629Z,12.20
2022-12-11T06:50:22.233Z,11.53
2022-12-11T06:52:48.957Z,10.63
2022-12-11T06:55:15.612Z,10.87
2022-12-11T06:57:42.354Z,10.40
2022-12-11T07:00:09.777Z,10.90
2022-12-11T07:02:36.560Z,10.67
2022-12-11T07:05:03.584Z,10.13
2022-12-11T07:07:30.343Z,10.23
2022-12-11T07:09:57.056Z,10.50
2022-12-11T07:12:23.854Z,10.70
2022-12-11T07:14:50.486Z,12.00
2022-12-11T07:17:17.091Z,10.87
2022-12-11T07:19:43.827Z,10.43
2022-12-11T07:22:10.445Z,10.77
2022-12-11T07:24:37.118Z,11.20
2022-12-11T07:27:04.474Z,11.40
2022-12-11T07:29:31.139Z,11.33
2022-12-11T07:31:57.919Z,10.67
2022-12-11T07:34:24.881Z,11.63
2022-12-11T07:36:51.637Z,11.80
2022-12-11T07:39:20.482Z,11.57
2022-12-11T07:41:47.290Z,10.97
2022-12-11T07:44:15.883Z,10.50
2022-12-11T07:46:42.562Z,11.50
2022-12-11T07:49:09.240Z,10.73
2022-12-11T07:51:37.512Z,10.60
2022-12-11T07:54:16.322Z,11.77
2022-12-11T07:56:53.257Z,10.53
2022-12-11T07:59:21.128Z,10.30
2022-12-11T08:01:47.888Z,9.50
2022-12-11T08:04:15.741Z,10.43
2022-12-11T08:06:43.112Z,10.77
2022-12-11T08:09:17.459Z,10.67
2022-12-11T08:11:49.365Z,10.47
2022-12-11T08:14:16.032Z,9.70
2022-12-11T08:16:44.190Z,9.47
2022-12-11T08:19:12.018Z,11.23
2022-12-11T08:21:40.033Z,11.80
2022-12-11T08:24:06.884Z,10.77
2022-12-11T08:26:36.425Z,11.00
2022-12-11T08:29:05.422Z,10.97
2022-12-11T08:31:33.152Z,10.77
2022-12-11T08:34:00.234Z,11.93
2022-12-11T08:36:27.143Z,11.30
2022-12-11T08:38:55.576Z,12.20
2022-12-11T08:41:30.183Z,10.53
2022-12-11T08:43:58.612Z,11.00
2022-12-11T08:46:27.889Z,10.80
2022-12-11T08:48:55.606Z,11.50
2022-12-11T08:51:25.969Z,10.93
2022-12-11T08:53:55.435Z,10.87
2022-12-11T08:56:23.619Z,10.37
2022-12-11T08:58:53.007Z,10.30
2022-12-11T09:01:22.228Z,11.07
2022-12-11T09:03:50.388Z,9.80
2022-12-11T09:06:20.565Z,9.43
2022-12-11T09:08:52.547Z,9.50
2022-12-11T09:11:32.199Z,10.07
2022-12-11T09:14:07.103Z,9.70
2022-12-11T09:16:37.662Z,9.10
2022-12-11T09:19:04.582Z,10.37
2022-12-11T09:21:31.300Z,10.33
2022-12-11T09:24:00.588Z,11.93
2022-12-11T09:26:29.204Z,11.03
2022-12-11T09:28:56.002Z,10.30
2022-12-11T09:31:27.985Z,10.90
2022-12-11T09:33:57.217Z,10.93
2022-12-11T09:36:24.233Z,11.57
2022-12-11T09:38:51.631Z,10.30
2022-12-11T09:41:21.458Z,10.30
2022-12-11T09:43:53.710Z,11.50
2022-12-11T09:46:24.453Z,11.27
2022-12-11T09:48:53.491Z,11.60
2022-12-11T09:51:35.045Z,10.33
2022-12-11T09:54:04.277Z,9.73
2022-12-11T09:56:45.130Z,10.27
2022-12-11T09:59:26.887Z,10.40
2022-12-11T10:02:15.159Z,9.93
2022-12-11T10:05:14.566Z,9.47
2022-12-11T10:07:45.409Z,9.87
2022-12-11T10:10:50.542Z,9.77
2022-12-11T10:13:41.341Z,9.83
2022-12-11T10:16:33.783Z,9.80
2022-12-11T10:19:01.107Z,9.90
2022-12-11T10:21:36.456Z,9.97
2022-12-11T10:24:05.805Z,9.80
2022-12-11T10:26:32.441Z,9.83
2022-12-11T10:29:02.557Z,9.30
2022-12-11T10:31:35.265Z,9.87
2022-12-11T10:34:13.307Z,9.00
2022-12-11T10:36:42.872Z,10.67
2022-12-11T10:39:14.683Z,10.07
2022-12-11T10:41:43.969Z,10.30
2022-12-11T10:44:26.733Z,9.90
2022-12-11T10:47:10.678Z,9.77
2022-12-11T10:49:39.066Z,10.87
2022-12-11T10:52:19.932Z,10.40
2022-12-11T10:54:53.999Z,10.07
2022-12-11T10:57:28.223Z,9.63
2022-12-11T10:59:55.646Z,10.20
2022-12-11T11:02:32.237Z,10.73
2022-12-11T11:05:01.039Z,10.37
2022-12-11T11:07:30.407Z,10.50
2022-12-11T11:10:15.909Z,11.93
2022-12-11T11:12:46.052Z,10.63
2022-12-11T11:15:35.840Z,9.30
2022-12-11T11:18:11.797Z,9.97
2022-12-11T11:20:47.300Z,9.67
2022-12-11T11:23:16.125Z,9.47
2022-12-11T11:25:56.122Z,9.50
2022-12-11T11:28:37.366Z,10.63
2022-12-11T11:31:08.500Z,10.10
2022-12-11T11:33:37.868Z,9.20
2022-12-11T11:36:07.529Z,10.47
2022-12-11T11:38:37.171Z,9.00
2022-12-11T11:41:15.712Z,9.43
2022-12-11T11:43:44.210Z,8.77
2022-12-11T11:46:17.781Z,8.67
2022-12-11T11:48:53.649Z,8.97
2022-12-11T11:51:29.577Z,9.17
2022-12-11T11:54:00.032Z,8.20
2022-12-11T11:56:31.438Z,8.90
2022-12-11T11:59:12.328Z,9.10
2022-12-11T12:01:41.922Z,9.03
2022-12-11T12:04:09.252Z,9.10
2022-12-11T12:06:50.933Z,8.83
2022-12-11T12:09:32.531Z,8.40
2022-12-11T12:12:07.093Z,8.33
2022-12-11T12:14:58.818Z,8.27
2022-12-11T12:17:55.147Z,8.33
2022-12-11T12:20:55.511Z,7.97
2022-12-11T12:23:45.101Z,8.67
2022-12-11T12:26:31.195Z,8.47
2022-12-11T12:29:22.273Z,8.40
2022-12-11T12:32:13.571Z,8.53
2022-12-11T12:34:49.020Z,9.00
2022-12-11T12:37:47.905Z,9.13
2022-12-11T12:40:43.516Z,9.33
2022-12-11T12:43:44.878Z,8.50
2022-12-11T12:46:19.724Z,9.13
2022-12-11T12:48:46.441Z,10.87
2022-12-11T12:51:17.528Z,8.93
2022-12-11T12:53:51.775Z,8.03
2022-12-11T12:56:19.885Z,8.87
2022-12-11T12:58:46.684Z,8.83
2022-12-11T13:01:13.339Z,9.23
2022-12-11T13:04:47.462Z,8.90
2022-12-11T13:07:18.738Z,8.20
2022-12-11T13:09:58.565Z,9.23
2022-12-11T13:12:42.489Z,8.97
2022-12-11T13:15:42.613Z,8.93
2022-12-11T13:18:33.316Z,9.00
2022-12-11T13:21:00.966Z,8.27
2022-12-11T13:23:31.010Z,9.77
2022-12-11T13:26:00.449Z,8.80
2022-12-11T13:28:28.892Z,8.53
2022-12-11T13:31:13.660Z,9.00
2022-12-11T13:33:45.888Z,9.77
2022-12-11T13:36:17.723Z,9.50
2022-12-11T13:38:51.110Z,10.33
2022-12-11T13:41:19.942Z,10.00
2022-12-11T13:43:49.970Z,10.27
2022-12-11T13:46:28.544Z,9.60
2022-12-11T13:49:02.299Z,10.73
2022-12-11T13:51:31.891Z,10.20
2022-12-11T13:54:17.897Z,10.60
2022-12-11T13:56:58.396Z,10.03
2022-12-11T13:59:28.790Z,9.13
2022-12-11T14:02:03.978Z,9.73
2022-12-11T14:04:33.528Z,8.63
2022-12-11T14:07:01.809Z,10.53
2022-12-11T14:09:28.866Z,9.77
2022-12-11T14:11:57.343Z,10.87
2022-12-11T14:14:33.637Z,10.07
2022-12-11T14:17:00.784Z,10.80
2022-12-11T14:19:28.257Z,10.80
2022-12-11T14:22:03.916Z,11.43
2022-12-11T14:24:31.496Z,11.77
2022-12-11T14:26:58.572Z,11.80
2022-12-11T14:29:26.674Z,13.53
2022-12-11T14:31:54.073Z,10.40
2022-12-11T14:34:26.237Z,11.43
2022-12-11T14:36:54.262Z,10.90
2022-12-11T14:39:43.336Z,10.77
2022-12-11T14:42:19.998Z,10.27
2022-12-11T14:44:55.483Z,10.27
2022-12-11T14:47:28.047Z,10.77
2022-12-11T14:50:08.303Z,10.43
2022-12-11T14:52:57.540Z,10.23
2022-12-11T14:55:28.662Z,10.03
2022-12-11T14:57:59.046Z,12.63
2022-12-11T15:00:27.510Z,11.13
2022-12-11T15:03:03.400Z,10.60
2022-12-11T15:05:35.767Z,10.40
2022-12-11T15:08:12.571Z,10.17
2022-12-11T15:10:43.428Z,11.37
2022-12-11T15:13:10.384Z,11.00
2022-12-11T15:15:47.514Z,10.70
2022-12-11T15:18:28.399Z,11.20
2022-12-11T15:20:58.681Z,10.30
2022-12-11T15:23:26.419Z,10.20
2022-12-11T15:25:56.725Z,10.57
2022-12-11T15:28:35.619Z,11.40
2022-12-11T15:31:24.103Z,11.47
2022-12-11T15:33:51.384Z,10.90
2022-12-11T15:36:30.196Z,10.53
2022-12-11T15:38:57.713Z,10.80
2022-12-11T15:41:25.106Z,11.33
2022-12-11T15:43:59.132Z,11.97
2022-12-11T15:46:26.477Z,11.60
2022-12-11T15:48:53.876Z,14.63
2022-12-11T15:51:20.525Z,13.63
2022-12-11T15:53:47.189Z,13.00
2022-12-11T15:56:15.300Z,13.07
2022-12-11T15:58:44.566Z,13.83
2022-12-11T16:01:11.586Z,14.10
2022-12-11T16:03:38.293Z,13.53
2022-12-11T16:06:05.244Z,11.40
2022-12-11T16:08:32.226Z,11.83
2022-12-11T16:10:59.048Z,12.20
2022-12-11T16:13:25.707Z,12.60
2022-12-11T16:15:54.233Z,11.67
2022-12-11T16:18:23.411Z,13.07
2022-12-11T16:20:51.394Z,13.63
2022-12-11T16:23:18.523Z,13.87
2022-12-11T16:25:46.475Z,13.40
2022-12-11T16:28:16.021Z,12.43
2022-12-11T16:30:44.050Z,13.13
2022-12-11T16:33:13.290Z,13.73
2022-12-11T16:35:41.863Z,12.73
2022-12-11T16:38:10.061Z,13.17
2022-12-11T16:40:37.526Z,14.00
2022-12-11T16:43:05.289Z,12.97
2022-12-11T16:45:32.461Z,13.90
2022-12-11T16:48:03.723Z,14.10
2022-12-11T16:50:31.119Z,13.47
2022-12-11T16:52:57.865Z,14.77
2022-12-11T16:55:24.730Z,13.87
2022-12-11T16:57:51.369Z,13.27
2022-12-11T17:00:18.237Z,12.97
2022-12-11T17:02:44.930Z,13.90
2022-12-11T17:05:11.900Z,13.50
2022-12-11T17:07:40.339Z,13.20
2022-12-11T17:10:07.772Z,13.40
2022-12-11T17:12:34.652Z,14.43
2022-12-11T17:15:01.403Z,14.07
2022-12-11T17:17:28.068Z,13.87
2022-12-11T17:19:55.866Z,16.00
2022-12-11T17:22:22.745Z,13.60
2022-12-11T17:24:49.647Z,13.93
2022-12-11T17:27:16.852Z,16.07
2022-12-11T17:29:43.787Z,18.87
2022-12-11T17:32:10.483Z,17.87
2022-12-11T17:34:38.625Z,16.10
2022-12-11T17:37:05.881Z,17.23
2022-12-11T17:39:33.442Z,19.53
2022-12-11T17:42:00.495Z,15.23
2022-12-11T17:44:30.284Z,13.13
2022-12-11T17:46:58.544Z,13.23
2022-12-11T17:49:25.922Z,15.03
2022-12-11T17:51:53.227Z,15.13
2022-12-11T17:54:20.145Z,14.77
2022-12-11T17:56:46.916Z,14.53
2022-12-11T17:59:13.643Z,14.93
2022-12-11T18:01:40.506Z,16.67
2022-12-11T18:04:07.330Z,16.77
2022-12-11T18:06:34.953Z,14.53
2022-12-11T18:09:01.965Z,15.17
2022-12-11T18:11:28.840Z,17.40
2022-12-11T18:13:55.691Z,16.93
2022-12-11T18:16:29.354Z,16.17
2022-12-11T18:18:56.479Z,15.23
2022-12-11T18:21:26.916Z,15.63
2022-12-11T18:23:53.951Z,14.97
2022-12-11T18:26:21.094Z,14.33
2022-12-11T18:28:49.718Z,14.00
2022-12-11T18:31:17.345Z,14.13
2022-12-11T18:33:45.001Z,14.57
2022-12-11T18:36:13.667Z,15.73
2022-12-11T18:38:40.987Z,16.03
2022-12-11T18:41:10.397Z,15.70
2022-12-11T18:43:37.406Z,16.87
2022-12-11T18:46:12.566Z,17.13
2022-12-11T18:48:39.987Z,16.40
2022-12-11T18:51:09.585Z,16.40
2022-12-11T18:53:39.117Z,15.23
2022-12-11T18:56:08.218Z,14.37
2022-12-11T18:58:35.008Z,16.07
2022-12-11T19:01:16.004Z,15.10
2022-12-11T19:03:44.057Z,14.97
2022-12-11T19:06:13.922Z,17.97
2022-12-11T19:08:41.075Z,20.37
2022-12-11T19:11:08.272Z,23.23
2022-12-11T19:13:35.659Z,18.03
2022-12-11T19:16:02.456Z,15.10
2022-12-11T19:18:29.291Z,14.00
2022-12-11T19:21:06.492Z,13.60
2022-12-11T19:23:35.724Z,13.80
2022-12-11T19:26:02.944Z,12.70
2022-12-11T19:28:29.792Z,14.07
2022-12-11T19:30:56.505Z,13.30
2022-12-11T19:33:23.256Z,16.43
2022-12-11T19:35:49.884Z,19.03
2022-12-11T19:38:16.794Z,14.50
2022-12-11T19:40:44.669Z,13.30
2022-12-11T19:43:11.599Z,20.57
2022-12-11T19:45:38.427Z,20.87
2022-12-11T19:48:05.865Z,18.93
2022-12-11T19:50:35.710Z,15.70
2022-12-11T19:53:03.666Z,13.70
2022-12-11T19:55:30.402Z,14.27
2022-12-11T19:57:57.083Z,15.00
2022-12-11T20:00:24.663Z,15.40
2022-12-11T20:02:51.679Z,14.57
2022-12-11T20:05:18.507Z,13.77
2022-12-11T20:07:45.295Z,14.37
2022-12-11T20:10:12.375Z,13.83
2022-12-11T20:12:39.557Z,15.33
2022-12-11T20:15:06.915Z,15.20
2022-12-11T20:17:33.669Z,15.57
2022-12-11T20:20:00.573Z,17.30
2022-12-11T20:22:27.342Z,14.17
2022-12-11T20:24:54.029Z,15.57
2022-12-11T20:27:20.798Z,13.80
2022-12-11T20:29:47.465Z,13.30
2022-12-11T20:32:14.314Z,13.97
2022-12-11T20:34:41.199Z,14.40
2022-12-11T20:37:07.986Z,14.30
2022-12-11T20:39:35.599Z,16.30
2022-12-11T20:42:04.803Z,14.90
2022-12-11T20:44:31.991Z,14.33
2022-12-11T20:46:58.646Z,14.03
2022-12-11T20:49:26.321Z,14.53
2022-12-11T20:51:53.517Z,14.17
2022-12-11T20:54:20.826Z,15.43
2022-12-11T20:56:47.710Z,16.33
2022-12-11T20:59:14.397Z,15.80
2022-12-11T21:01:41.146Z,15.40
2022-12-11T21:04:07.906Z,14.47
2022-12-11T21:06:37.475Z,13.73
2022-12-11T21:09:11.720Z,14.03
2022-12-11T21:11:38.801Z,14.50
2022-12-11T21:14:06.472Z,13.70
2022-12-11T21:16:35.293Z,14.07
2022-12-11T21:19:02.848Z,14.30
2022-12-11T21:21:32.299Z,13.67
2022-12-11T21:23:59.016Z,13.13
2022-12-11T21:26:25.699Z,11.80
2022-12-11T21:28:52.481Z,12.63
2022-12-11T21:31:19.811Z,14.40
2022-12-11T21:33:46.803Z,15.93
2022-12-11T21:36:15.267Z,15.63
2022-12-11T21:38:43.901Z,17.60
2022-12-11T21:41:16.622Z,15.23
2022-12-11T21:44:14.543Z,16.10
2022-12-11T21:46:31.883Z,13.73
2022-12-11T21:48:59.589Z,15.20
2022-12-11T21:51:35.690Z,14.43
2022-12-11T21:54:06.142Z,14.10
2022-12-11T21:56:33.308Z,15.53
2022-12-11T21:59:01.451Z,15.53
2022-12-11T22:01:33.294Z,14.60
2022-12-11T22:04:00.004Z,15.83
2022-12-11T22:06:28.337Z,15.90
2022-12-11T22:08:55.088Z,16.27
2022-12-11T22:11:26.088Z,16.57
2022-12-11T22:13:53.290Z,16.23
2022-12-11T22:16:20.383Z,15.23
2022-12-11T22:18:47.384Z,14.90
2022-12-11T22:21:14.792Z,14.67
2022-12-11T22:23:43.050Z,17.23
2022-12-11T22:26:15.260Z,16.47
2022-12-11T22:28:42.108Z,16.60
2022-12-11T22:31:11.928Z,18.50
2022-12-11T22:33:39.277Z,23.27
2022-12-11T22:36:06.572Z,30.00
2022-12-11T22:38:34.585Z,25.53
2022-12-11T22:41:02.974Z,24.30
2022-12-11T22:43:29.659Z,24.53
2022-12-11T22:45:56.382Z,21.33
2022-12-11T22:48:27.212Z,18.23
2022-12-11T22:50:54.646Z,18.53
2022-12-11T22:53:21.596Z,15.73
2022-12-11T22:55:48.267Z,14.97
2022-12-11T22:58:21.430Z,15.70
2022-12-11T23:00:48.602Z,14.80
2022-12-11T23:03:15.398Z,14.93
2022-12-11T23:05:43.264Z,16.27
2022-12-11T23:08:10.102Z,15.30
2022-12-11T23:10:40.363Z,16.60
2022-12-11T23:13:07.507Z,15.20
2022-12-11T23:15:34.244Z,15.43
2022-12-11T23:18:00.896Z,15.67
2022-12-11T23:20:28.343Z,14.43
2022-12-11T23:22:54.998Z,16.03
2022-12-11T23:25:21.774Z,16.53
2022-12-11T23:27:48.636Z,15.43
2022-12-11T23:30:15.490Z,15.90
2022-12-11T23:32:42.163Z,15.07
2022-12-11T23:35:09.152Z,14.33
2022-12-11T23:37:35.831Z,15.93
2022-12-11T23:40:05.022Z,15.20
2022-12-11T23:42:34.188Z,15.73
2022-12-11T23:45:00.881Z,14.50
2022-12-11T23:47:27.581Z,15.33
2022-12-11T23:49:54.194Z,15.77
2022-12-11T23:52:22.563Z,15.60
2022-12-11T23:54:51.291Z,15.47
2022-12-11T23:57:17.964Z,15.17
2022-12-11T23:59:44.795Z,15.97
